Time;durP1;ratioP1;P1;durP2;ratioP2;P2;SDS_P1;SDS_P2;PMS_P1;PMS_P2;Temp;Humidity;BMP_temperature;BMP_pressure;BME280_temperature;BME280_humidity;BME280_pressure;Samples;Min_cycle;Max_cycle;Signal;HPM_P1;HPM_P2
2024/01/16 00:00:31;;;;;;;;;;;;;;;16.75;39.33;99314.88;4950846;29;1057;-52
2024/01/16 00:02:57;;;;;;;;;;;;;;;16.16;40.36;99306.56;4956767;29;1179;-48
2024/01/16 00:05:22;;;;;;;;;;;;;;;17.89;37.00;99297.16;4960272;29;1212;-52
2024/01/16 00:07:48;;;;;;;;;;;;;;;16.85;38.81;99308.34;4960271;29;1033;-49
2024/01/16 00:10:13;;;;;;;;;;;;;;;16.32;40.14;99310.59;4960141;29;1145;-50
2024/01/16 00:12:40;;;;;;;;;;;;;;;16.04;40.65;99307.88;4960282;29;1188;-49
2024/01/16 00:15:06;;;;;;;;;;;;;;;15.88;40.81;99301.13;4960277;29;1049;-51
2024/01/16 00:17:31;;;;;;;;;;;;;;;15.72;41.31;99301.38;4960132;29;1973;-50
2024/01/16 00:20:00;;;;;;;;;;;;;;;17.14;38.74;99298.84;4959549;29;916;-51
2024/01/16 00:22:26;;;;;;;;;;;;;;;16.81;38.86;99299.88;4960066;29;1062;-51
2024/01/16 00:24:52;;;;;;;;;;;;;;;16.02;40.79;99299.16;4950286;29;1097;-50
2024/01/16 00:27:17;;;;;;;;;;;;;;;17.36;37.94;99296.09;4957175;29;1154;-50
2024/01/16 00:29:43;;;;;;;;;;;;;;;16.85;39.02;99308.34;4959540;29;1077;-53
2024/01/16 00:32:08;;;;;;;;;;;;;;;16.24;40.39;99301.19;4959720;29;1226;-47
2024/01/16 00:34:34;;;;;;;;;;;;;;;17.28;38.47;99297.66;4959576;28;1145;-47
2024/01/16 00:36:59;;;;;;;;;;;;;;;17.08;38.50;99288.00;4959187;29;1976;-51
2024/01/16 00:39:25;;;;;;;;;;;;;;;16.31;40.24;99287.03;4959419;29;1098;-50
2024/01/16 00:41:50;;;;;;;;;;;;;;;16.81;39.18;99293.59;4959476;29;1188;-49
2024/01/16 00:44:16;;;;;;;;;;;;;;;18.27;36.39;99291.13;4959377;29;1215;-53
2024/01/16 00:46:42;;;;;;;;;;;;;;;16.83;39.06;99286.69;4959508;29;1176;-52
2024/01/16 00:49:07;;;;;;;;;;;;;;;16.29;40.05;99286.53;4959587;29;1136;-51
2024/01/16 00:51:33;;;;;;;;;;;;;;;17.76;37.23;99276.88;4959594;29;1241;-50
2024/01/16 00:53:58;;;;;;;;;;;;;;;17.02;38.69;99264.53;4959683;29;1050;-50
2024/01/16 00:56:26;;;;;;;;;;;;;;;16.45;40.08;99264.25;4959168;29;897;-49
2024/01/16 00:58:53;;;;;;;;;;;;;;;16.07;40.75;99260.69;4959493;29;1915;-50
2024/01/16 01:01:19;;;;;;;;;;;;;;;16.27;40.57;99255.03;4959178;29;1164;-51
2024/01/16 01:03:45;;;;;;;;;;;;;;;17.64;37.63;99251.91;4959349;29;1502;-52
2024/01/16 01:06:11;;;;;;;;;;;;;;;16.49;39.99;99246.03;4959102;29;1089;-52
2024/01/16 01:08:36;;;;;;;;;;;;;;;17.34;38.21;99243.38;4941392;29;870;-49
2024/01/16 01:11:02;;;;;;;;;;;;;;;17.05;38.68;99239.19;4958633;29;1089;-50
2024/01/16 01:13:28;;;;;;;;;;;;;;;16.26;40.50;99240.53;4959250;29;1131;-49
2024/01/16 01:15:54;;;;;;;;;;;;;;;16.01;40.97;99239.97;4958938;29;1082;-50
2024/01/16 01:18:19;;;;;;;;;;;;;;;15.94;40.90;99234.09;4958814;29;1911;-50
2024/01/16 01:20:45;;;;;;;;;;;;;;;17.45;38.08;99235.69;4958773;29;957;-50
2024/01/16 01:23:10;;;;;;;;;;;;;;;16.97;38.74;99219.91;4959082;29;1065;-50
2024/01/16 01:25:36;;;;;;;;;;;;;;;16.23;40.55;99225.50;4958681;29;1108;-49
2024/01/16 01:28:02;;;;;;;;;;;;;;;17.53;38.20;99228.59;4959328;29;1133;-50
2024/01/16 01:30:27;;;;;;;;;;;;;;;16.96;38.83;99224.63;4958560;29;1144;-53
2024/01/16 01:32:53;;;;;;;;;;;;;;;16.28;40.52;99227.31;4958429;29;924;-48
2024/01/16 01:35:21;;;;;;;;;;;;;;;16.73;39.58;99215.53;4958703;29;1057;-50
2024/01/16 01:37:47;;;;;;;;;;;;;;;17.53;37.80;99220.34;4958783;29;1892;-49
2024/01/16 01:40:14;;;;;;;;;;;;;;;16.41;40.04;99217.41;4958471;29;1080;-50
2024/01/16 01:42:40;;;;;;;;;;;;;;;16.15;40.66;99208.97;4958497;29;1176;-53
2024/01/16 01:45:07;;;;;;;;;;;;;;;15.90;41.13;99220.16;4957433;28;955;-52
2024/01/16 01:47:32;;;;;;;;;;;;;;;17.33;38.52;99206.03;4958022;29;1026;-52
2024/01/16 01:49:59;;;;;;;;;;;;;;;16.96;38.84;99208.13;4958506;29;1061;-49
2024/01/16 01:52:24;;;;;;;;;;;;;;;16.16;40.81;99207.81;4958547;29;1112;-51
2024/01/16 01:54:50;;;;;;;;;;;;;;;15.98;40.90;99206.88;4941287;29;1054;-48
2024/01/16 01:57:15;;;;;;;;;;;;;;;17.64;37.93;99210.69;4958181;29;1972;-49
2024/01/16 01:59:41;;;;;;;;;;;;;;;16.80;39.25;99207.66;4958339;29;1061;-48
2024/01/16 02:02:06;;;;;;;;;;;;;;;16.22;40.45;99214.84;4958374;29;1077;-48
2024/01/16 02:04:32;;;;;;;;;;;;;;;17.18;38.67;99212.78;4958212;29;1077;-46
2024/01/16 02:06:58;;;;;;;;;;;;;;;16.98;38.87;99211.38;4957991;29;1133;-50
2024/01/16 02:09:23;;;;;;;;;;;;;;;16.31;40.48;99218.44;4957791;29;1081;-53
2024/01/16 02:11:49;;;;;;;;;;;;;;;16.95;39.32;99211.19;4957929;29;1061;-50
2024/01/16 02:14:14;;;;;;;;;;;;;;;17.50;37.82;99212.75;4958144;29;1061;-49
2024/01/16 02:16:40;;;;;;;;;;;;;;;16.45;39.99;99203.88;4958168;29;1069;-49
2024/01/16 02:19:06;;;;;;;;;;;;;;;16.08;41.02;99207.44;4957810;29;1906;-47
2024/01/16 02:21:36;;;;;;;;;;;;;;;16.02;40.99;99210.59;4958180;29;1113;-49
2024/01/16 02:24:01;;;;;;;;;;;;;;;17.67;37.74;99209.22;4940662;29;1030;-52
2024/01/16 02:26:27;;;;;;;;;;;;;;;16.86;39.31;99206.44;4941062;29;1141;-50
2024/01/16 02:28:52;;;;;;;;;;;;;;;16.24;40.68;99209.84;4957855;29;1078;-51
2024/01/16 02:31:18;;;;;;;;;;;;;;;16.08;41.00;99207.44;4957544;29;1121;-48
2024/01/16 02:33:44;;;;;;;;;;;;;;;15.84;41.08;99207.69;4957997;29;1118;-50
2024/01/16 02:36:10;;;;;;;;;;;;;;;16.21;40.92;99210.47;4958067;29;1094;-49
2024/01/16 02:38:35;;;;;;;;;;;;;;;17.86;37.43;99201.53;4957404;29;1898;-48
2024/01/16 02:41:01;;;;;;;;;;;;;;;16.67;39.75;99206.63;4957998;29;1010;-53
2024/01/16 02:43:26;;;;;;;;;;;;;;;16.14;40.96;99204.59;4954812;29;1075;-52
2024/01/16 02:45:53;;;;;;;;;;;;;;;17.81;37.78;99203.63;4948906;29;1074;-48
2024/01/16 02:48:18;;;;;;;;;;;;;;;16.63;39.91;99194.66;4953702;29;1201;-52
2024/01/16 02:50:44;;;;;;;;;;;;;;;16.19;40.99;99197.06;4957948;29;1069;-52
2024/01/16 02:53:09;;;;;;;;;;;;;;;17.86;37.69;99201.53;4957791;29;1092;-54
2024/01/16 02:55:35;;;;;;;;;;;;;;;16.79;39.53;99200.59;4957690;29;1080;-51
2024/01/16 02:58:03;;;;;;;;;;;;;;;16.26;40.44;99196.66;4960635;28;1906;-54
2024/01/16 03:00:28;;;;;;;;;;;;;;;16.24;40.79;99207.09;4961579;29;1128;-49
2024/01/16 03:02:54;;;;;;;;;;;;;;;18.07;37.28;99204.50;4961488;29;1140;-52
2024/01/16 03:05:19;;;;;;;;;;;;;;;16.82;39.34;99208.19;4961489;29;1156;-51
2024/01/16 03:07:45;;;;;;;;;;;;;;;16.37;40.53;99209.00;4961092;29;1176;-50
2024/01/16 03:10:11;;;;;;;;;;;;;;;16.02;41.06;99214.19;4960960;29;1027;-53
2024/01/16 03:12:37;;;;;;;;;;;;;;;17.94;37.41;99213.72;4960614;29;1148;-50
2024/01/16 03:15:02;;;;;;;;;;;;;;;17.02;39.01;99212.34;4961117;29;1073;-52
2024/01/16 03:17:28;;;;;;;;;;;;;;;16.36;40.63;99212.84;4961321;29;1932;-49
2024/01/16 03:19:54;;;;;;;;;;;;;;;16.10;41.09;99198.91;4961142;29;1073;-51
2024/01/16 03:22:19;;;;;;;;;;;;;;;15.98;41.38;99204.13;4961055;29;1065;-51
2024/01/16 03:24:45;;;;;;;;;;;;;;;17.89;37.46;99211.06;4961504;29;1187;-53
2024/01/16 03:27:11;;;;;;;;;;;;;;;16.72;39.87;99217.50;4960877;29;1219;-51
2024/01/16 03:29:37;;;;;;;;;;;;;;;16.16;40.94;99221.53;4961019;29;1156;-48
2024/01/16 03:32:02;;;;;;;;;;;;;;;17.98;37.36;99214.69;4960573;29;1074;-49
2024/01/16 03:34:29;;;;;;;;;;;;;;;16.82;39.48;99218.38;4960996;29;1125;-52
2024/01/16 03:36:55;;;;;;;;;;;;;;;16.23;40.81;99222.75;4943420;29;1156;-49
2024/01/16 03:39:22;;;;;;;;;;;;;;;17.00;39.32;99220.13;4960447;29;1989;-51
2024/01/16 03:41:48;;;;;;;;;;;;;;;17.32;38.61;99223.69;4960963;29;1077;-54
2024/01/16 03:44:13;;;;;;;;;;;;;;;16.40;40.63;99237.75;4960218;29;1416;-54
2024/01/16 03:46:39;;;;;;;;;;;;;;;16.16;40.82;99235.25;4960525;29;1158;-53
2024/01/16 03:49:04;;;;;;;;;;;;;;;16.53;40.36;99247.03;4960601;29;1025;-53
2024/01/16 03:51:30;;;;;;;;;;;;;;;17.35;38.51;99247.78;4960677;29;1065;-53
2024/01/16 03:53:55;;;;;;;;;;;;;;;16.34;40.60;99245.28;4960232;29;1152;-51
2024/01/16 03:56:22;;;;;;;;;;;;;;;16.63;40.44;99265.19;4960195;29;1152;-54
2024/01/16 03:58:47;;;;;;;;;;;;;;;17.29;38.60;99265.50;4960395;29;1902;-55
2024/01/16 04:01:13;;;;;;;;;;;;;;;16.38;40.40;99262.75;4959982;29;1061;-54
2024/01/16 04:03:39;;;;;;;;;;;;;;;16.06;41.29;99263.69;4960222;29;1116;-54
2024/01/16 04:06:14;;;;;;;;;;;;;;;15.97;41.47;99279.28;4960427;29;1089;-52
2024/01/16 04:08:39;;;;;;;;;;;;;;;17.60;38.09;99270.19;4959313;28;1093;-51
2024/01/16 04:11:05;;;;;;;;;;;;;;;16.36;40.50;99280.63;4960006;29;1018;-53
2024/01/16 04:13:30;;;;;;;;;;;;;;;15.91;41.36;99292.28;4960277;29;1149;-53
2024/01/16 04:15:56;;;;;;;;;;;;;;;15.77;41.45;99307.84;4959927;29;1211;-55
2024/01/16 04:18:22;;;;;;;;;;;;;;;17.58;38.33;99302.66;4960193;29;1985;-53
2024/01/16 04:20:48;;;;;;;;;;;;;;;16.77;39.63;99302.47;4959977;29;1140;-55
2024/01/16 04:23:13;;;;;;;;;;;;;;;16.05;41.10;99312.25;4960607;29;1204;-54
2024/01/16 04:25:39;;;;;;;;;;;;;;;15.88;41.69;99326.59;4959712;29;1081;-55
2024/01/16 04:28:04;;;;;;;;;;;;;;;16.13;41.29;99327.19;4959680;29;1030;-54
2024/01/16 04:30:30;;;;;;;;;;;;;;;17.41;38.59;99336.38;4959722;29;1081;-54
2024/01/16 04:32:56;;;;;;;;;;;;;;;16.20;41.05;99341.31;4959753;29;1212;-57
2024/01/16 04:35:21;;;;;;;;;;;;;;;16.25;40.86;99343.91;4959508;29;1167;-57
2024/01/16 04:37:47;;;;;;;;;;;;;;;17.98;37.26;99349.44;4959614;29;1979;-57
2024/01/16 04:40:13;;;;;;;;;;;;;;;16.55;40.16;99352.63;4959676;29;994;-56
2024/01/16 04:42:38;;;;;;;;;;;;;;;16.07;41.40;99362.13;4959396;29;1148;-56
2024/01/16 04:45:04;;;;;;;;;;;;;;;15.83;41.77;99366.97;4958802;29;1018;-53
2024/01/16 04:47:31;;;;;;;;;;;;;;;16.39;40.71;99382.31;4959484;29;1045;-55
2024/01/16 04:49:56;;;;;;;;;;;;;;;17.82;37.81;99372.97;4959862;29;1131;-54
2024/01/16 04:52:23;;;;;;;;;;;;;;;16.51;40.42;99383.72;4958650;29;1212;-52
2024/01/16 04:54:48;;;;;;;;;;;;;;;16.02;41.35;99389.66;4957901;29;1357;-46
2024/01/16 04:57:14;;;;;;;;;;;;;;;17.77;38.04;99396.72;4958320;29;1910;-50
2024/01/16 04:59:41;;;;;;;;;;;;;;;16.69;40.27;99390.19;4959219;29;1028;-48
2024/01/16 05:02:07;;;;;;;;;;;;;;;16.16;41.07;99399.78;4958710;29;1224;-48
2024/01/16 05:04:32;;;;;;;;;;;;;;;16.53;40.64;99401.50;4959693;29;1080;-46
2024/01/16 05:06:58;;;;;;;;;;;;;;;18.12;37.18;99396.09;4959307;29;1037;-46
2024/01/16 05:09:23;;;;;;;;;;;;;;;16.76;39.75;99396.91;4956174;29;1179;-51
2024/01/16 05:11:49;;;;;;;;;;;;;;;16.21;41.18;99411.47;4958409;29;1035;-42
2024/01/16 05:14:14;;;;;;;;;;;;;;;17.16;39.41;99422.97;4959291;29;1148;-49
2024/01/16 05:16:40;;;;;;;;;;;;;;;17.17;38.92;99421.84;4959312;29;1093;-49
2024/01/16 05:19:05;;;;;;;;;;;;;;;16.37;40.67;99435.88;4958786;29;1913;-47
2024/01/16 05:21:31;;;;;;;;;;;;;;;17.33;38.80;99439.59;4958683;28;1148;-47
2024/01/16 05:23:57;;;;;;;;;;;;;;;16.88;39.69;99439.50;4959101;29;1125;-43
2024/01/16 05:26:22;;;;;;;;;;;;;;;16.48;40.53;99450.19;4958929;29;1147;-45
2024/01/16 05:28:48;;;;;;;;;;;;;;;16.19;40.92;99457.59;4958650;29;1077;-45
2024/01/16 05:31:13;;;;;;;;;;;;;;;16.00;41.39;99457.66;4958801;29;1082;-44
2024/01/16 05:33:39;;;;;;;;;;;;;;;17.20;38.90;99470.69;4958654;29;974;-46
2024/01/16 05:36:04;;;;;;;;;;;;;;;17.23;38.72;99467.31;4958488;29;1035;-46
2024/01/16 05:38:30;;;;;;;;;;;;;;;16.43;40.46;99476.59;4958685;29;1906;-43
2024/01/16 05:40:56;;;;;;;;;;;;;;;16.12;41.36;99481.88;4958981;29;1156;-44
2024/01/16 05:43:21;;;;;;;;;;;;;;;17.65;37.99;99481.69;4958530;29;1177;-45
2024/01/16 05:45:47;;;;;;;;;;;;;;;16.98;39.37;99488.72;4957331;29;1260;-43
2024/01/16 05:48:13;;;;;;;;;;;;;;;16.36;40.66;99506.38;4958251;29;1077;-46
2024/01/16 05:50:39;;;;;;;;;;;;;;;16.23;41.11;99509.94;4958566;28;1062;-42
2024/01/16 05:53:04;;;;;;;;;;;;;;;17.74;37.68;99503.75;4957988;29;1180;-42
2024/01/16 05:55:35;;;;;;;;;;;;;;;17.03;39.20;99513.31;4958390;29;1181;-45
2024/01/16 05:58:00;;;;;;;;;;;;;;;16.41;40.59;99510.94;4957692;29;1983;-47
2024/01/16 06:00:26;;;;;;;;;;;;;;;16.50;40.30;99519.31;4958109;29;1038;-47
2024/01/16 06:02:51;;;;;;;;;;;;;;;17.92;37.38;99524.78;4958813;29;1085;-45
2024/01/16 06:05:17;;;;;;;;;;;;;;;17.04;38.99;99520.44;4957971;29;1113;-46
2024/01/16 06:07:43;;;;;;;;;;;;;;;16.42;40.53;99529.03;4957038;29;1073;-43
2024/01/16 06:10:09;;;;;;;;;;;;;;;16.33;40.68;99534.44;4957619;28;1401;-44
2024/01/16 06:12:34;;;;;;;;;;;;;;;17.90;37.42;99543.50;4956588;29;1303;-48
2024/01/16 06:15:00;;;;;;;;;;;;;;;17.06;39.14;99545.66;4958000;29;1030;-47
2024/01/16 06:17:26;;;;;;;;;;;;;;;16.54;40.37;99564.25;4958405;29;1985;-47
2024/01/16 06:19:51;;;;;;;;;;;;;;;16.20;41.23;99565.38;4957132;29;1430;-45
2024/01/16 06:22:17;;;;;;;;;;;;;;;17.52;38.32;99570.53;4957877;29;1125;-46
2024/01/16 06:24:42;;;;;;;;;;;;;;;17.45;38.43;99576.44;4958109;29;1042;-48
2024/01/16 06:27:08;;;;;;;;;;;;;;;16.65;39.99;99593.13;4958193;29;1141;-48
2024/01/16 06:29:34;;;;;;;;;;;;;;;16.31;40.80;99588.75;4953579;29;1156;-43
2024/01/16 06:32:00;;;;;;;;;;;;;;;17.79;37.98;99603.44;4957833;29;1193;-44
2024/01/16 06:34:26;;;;;;;;;;;;;;;17.27;38.69;99603.72;4956729;29;1112;-45
2024/01/16 06:36:52;;;;;;;;;;;;;;;16.49;40.28;99610.97;4957993;29;1165;-45
2024/01/16 06:39:18;;;;;;;;;;;;;;;16.31;40.97;99610.72;4957067;29;1907;-48
2024/01/16 06:41:43;;;;;;;;;;;;;;;17.75;37.86;99618.09;4958096;29;1015;-47
2024/01/16 06:44:09;;;;;;;;;;;;;;;17.45;38.25;99617.66;4955839;29;1191;-44
2024/01/16 06:46:34;;;;;;;;;;;;;;;16.64;40.23;99623.63;4957326;29;1173;-45
2024/01/16 06:49:00;;;;;;;;;;;;;;;16.37;40.72;99647.94;4956586;29;1199;-47
2024/01/16 06:51:26;;;;;;;;;;;;;;;16.52;40.68;99646.03;4957116;29;1133;-48
2024/01/16 06:53:51;;;;;;;;;;;;;;;17.92;37.67;99650.47;4957874;29;1266;-42
2024/01/16 06:56:17;;;;;;;;;;;;;;;16.99;39.28;99671.59;4957135;29;1172;-52
2024/01/16 06:58:43;;;;;;;;;;;;;;;16.51;40.31;99677.31;4956008;29;1969;-44
2024/01/16 07:01:09;;;;;;;;;;;;;;;16.23;41.14;99685.47;4957565;29;1204;-41
2024/01/16 07:03:35;;;;;;;;;;;;;;;17.73;38.05;99698.16;4957578;29;1141;-47
2024/01/16 07:06:00;;;;;;;;;;;;;;;17.14;39.23;99708.13;4957218;29;1089;-46
2024/01/16 07:08:26;;;;;;;;;;;;;;;16.51;40.30;99704.78;4957621;29;1121;-50
2024/01/16 07:10:52;;;;;;;;;;;;;;;16.62;40.24;99716.41;4957274;29;1101;-48
2024/01/16 07:13:18;;;;;;;;;;;;;;;18.00;37.63;99718.50;4957747;29;1013;-48
2024/01/16 07:15:44;;;;;;;;;;;;;;;17.10;38.97;99719.72;4957370;29;1053;-46
2024/01/16 07:18:10;;;;;;;;;;;;;;;16.52;40.26;99733.84;4957553;29;1895;-45
2024/01/16 07:20:35;;;;;;;;;;;;;;;16.45;40.70;99731.47;4957364;29;1184;-48
2024/01/16 07:23:01;;;;;;;;;;;;;;;17.96;37.57;99731.25;4957285;29;906;-48
2024/01/16 07:25:26;;;;;;;;;;;;;;;17.08;39.06;99732.94;4957136;29;1116;-46
2024/01/16 07:27:52;;;;;;;;;;;;;;;16.53;40.54;99754.69;4957229;29;1054;-47
2024/01/16 07:30:17;;;;;;;;;;;;;;;16.16;41.12;99750.84;4957685;29;1045;-47
2024/01/16 07:32:43;;;;;;;;;;;;;;;17.56;38.33;99752.94;4957226;29;1034;-48
2024/01/16 07:35:09;;;;;;;;;;;;;;;17.54;38.19;99771.66;4957213;29;1393;-43
2024/01/16 07:37:34;;;;;;;;;;;;;;;16.70;39.96;99776.13;4957412;29;1971;-44
2024/01/16 07:40:00;;;;;;;;;;;;;;;16.28;41.06;99788.81;4957081;29;1076;-44
2024/01/16 07:42:26;;;;;;;;;;;;;;;17.00;39.49;99799.56;4957372;28;988;-45
2024/01/16 07:44:52;;;;;;;;;;;;;;;17.97;37.21;99815.41;4959531;29;1085;-51
2024/01/16 07:47:17;;;;;;;;;;;;;;;16.89;39.48;99829.09;4960421;29;923;-48
2024/01/16 07:49:43;;;;;;;;;;;;;;;16.42;40.69;99841.84;4960691;29;1057;-46
2024/01/16 07:52:09;;;;;;;;;;;;;;;17.22;39.14;99845.63;4960369;29;1092;-46
2024/01/16 07:54:34;;;;;;;;;;;;;;;17.68;37.76;99854.97;4960555;29;1093;-47
2024/01/16 07:57:00;;;;;;;;;;;;;;;16.72;39.76;99873.53;4960586;29;1303;-47
2024/01/16 07:59:26;;;;;;;;;;;;;;;16.29;40.64;99873.56;4959774;29;1981;-46
2024/01/16 08:01:52;;;;;;;;;;;;;;;17.26;38.86;99884.28;4960445;29;1042;-50
2024/01/16 08:04:17;;;;;;;;;;;;;;;17.82;37.57;99878.91;4960339;29;1049;-48
2024/01/16 08:06:43;;;;;;;;;;;;;;;16.74;39.62;99882.28;4960548;29;1105;-46
2024/01/16 08:09:11;;;;;;;;;;;;;;;16.31;40.72;99876.81;4960395;29;1153;-52
2024/01/16 08:11:37;;;;;;;;;;;;;;;17.19;39.12;99897.59;4960101;29;886;-50
2024/01/16 08:14:03;;;;;;;;;;;;;;;17.97;37.28;99908.91;4958553;29;1144;-48
2024/01/16 08:16:28;;;;;;;;;;;;;;;16.84;39.34;99919.75;4959909;29;1346;-44
2024/01/16 08:18:54;;;;;;;;;;;;;;;16.35;40.33;99923.69;4960130;29;1914;-48
2024/01/16 08:21:19;;;;;;;;;;;;;;;16.52;40.16;99940.50;4960086;29;1053;-45
2024/01/16 08:23:45;;;;;;;;;;;;;;;17.96;37.30;99932.03;4957568;28;1291;-45
2024/01/16 08:26:10;;;;;;;;;;;;;;;16.98;38.96;99952.81;4960379;29;1085;-48
2024/01/16 08:28:36;;;;;;;;;;;;;;;16.48;40.34;99968.81;4959251;29;1295;-47
2024/01/16 08:31:02;;;;;;;;;;;;;;;17.01;39.29;99974.22;4960114;29;1397;-43
2024/01/16 08:33:27;;;;;;;;;;;;;;;17.78;37.62;99973.03;4960127;29;1138;-47
2024/01/16 08:35:53;;;;;;;;;;;;;;;16.73;39.49;99987.72;4959013;29;1030;-42
2024/01/16 08:38:19;;;;;;;;;;;;;;;16.27;40.43;99987.44;4959828;29;1981;-46
2024/01/16 08:40:44;;;;;;;;;;;;;;;17.34;38.50;100004.50;4959793;29;1118;-46
2024/01/16 08:43:10;;;;;;;;;;;;;;;17.75;37.45;100003.03;4959292;29;1199;-47
2024/01/16 08:45:35;;;;;;;;;;;;;;;16.74;39.42;100008.56;4959288;29;1228;-45
2024/01/16 08:48:01;;;;;;;;;;;;;;;16.27;40.59;100003.88;4958964;29;1039;-46
2024/01/16 08:50:27;;;;;;;;;;;;;;;16.70;39.78;100018.50;4955403;29;1417;-45
2024/01/16 08:52:52;;;;;;;;;;;;;;;18.04;37.29;100010.31;4946541;29;1148;-43
2024/01/16 08:55:18;;;;;;;;;;;;;;;17.03;39.14;100024.16;4958087;28;1191;-50
2024/01/16 08:57:43;;;;;;;;;;;;;;;16.45;40.56;100027.03;4958408;29;1912;-50
2024/01/16 09:00:09;;;;;;;;;;;;;;;17.50;38.21;100023.50;4958995;29;1120;-51
2024/01/16 09:02:35;;;;;;;;;;;;;;;17.99;37.13;100013.94;4958888;29;1057;-50
2024/01/16 09:05:01;;;;;;;;;;;;;;;16.92;39.48;100015.22;4958946;29;1431;-47
2024/01/16 09:07:26;;;;;;;;;;;;;;;16.45;40.31;100027.84;4959339;29;1046;-47
2024/01/16 09:09:52;;;;;;;;;;;;;;;16.71;40.00;100024.81;4959450;29;1038;-47
2024/01/16 09:12:18;;;;;;;;;;;;;;;18.06;37.12;100005.31;4959147;29;1019;-51
2024/01/16 09:14:43;;;;;;;;;;;;;;;17.09;38.84;100031.22;4959106;29;1076;-52
2024/01/16 09:17:09;;;;;;;;;;;;;;;16.55;39.93;100027.75;4959261;29;1315;-49
2024/01/16 09:19:35;;;;;;;;;;;;;;;16.20;40.63;100031.66;4959454;29;1902;-49
2024/01/16 09:22:00;;;;;;;;;;;;;;;17.32;38.54;100039.72;4958426;29;1187;-48
2024/01/16 09:24:26;;;;;;;;;;;;;;;18.10;37.10;100040.19;4958245;29;1027;-51
2024/01/16 09:26:51;;;;;;;;;;;;;;;16.99;39.01;100047.84;4958228;29;1370;-47
2024/01/16 09:29:17;;;;;;;;;;;;;;;16.50;40.17;100049.75;4958833;29;1085;-49
2024/01/16 09:31:42;;;;;;;;;;;;;;;16.35;40.74;100067.16;4958010;29;1232;-45
2024/01/16 09:34:08;;;;;;;;;;;;;;;17.89;37.35;100049.84;4958324;29;1053;-51
2024/01/16 09:36:37;;;;;;;;;;;;;;;17.62;37.89;100068.66;4957378;29;884;-49
2024/01/16 09:39:07;;;;;;;;;;;;;;;16.79;39.66;100070.84;4958688;29;1902;-48
2024/01/16 09:41:34;;;;;;;;;;;;;;;16.36;40.50;100068.81;4957815;29;1157;-47
2024/01/16 09:43:59;;;;;;;;;;;;;;;16.69;39.95;100079.19;4940615;29;1203;-49
2024/01/16 09:46:25;;;;;;;;;;;;;;;18.05;37.06;100087.03;4958053;29;1049;-46
2024/01/16 09:48:51;;;;;;;;;;;;;;;17.54;37.86;100074.03;4929338;29;1079;-51
2024/01/16 09:51:17;;;;;;;;;;;;;;;16.75;39.49;100078.84;4941507;29;1156;-51
2024/01/16 09:53:42;;;;;;;;;;;;;;;16.37;40.65;100075.13;4941366;29;1220;-50
2024/01/16 09:56:10;;;;;;;;;;;;;;;16.19;40.92;100084.91;4958755;29;1197;-50
2024/01/16 09:58:36;;;;;;;;;;;;;;;17.78;37.68;100091.28;4940887;29;1902;-47
2024/01/16 10:01:02;;;;;;;;;;;;;;;17.36;38.26;100101.22;4958206;29;1074;-50
2024/01/16 10:03:28;;;;;;;;;;;;;;;16.60;39.81;100111.94;4957727;29;1176;-47
2024/01/16 10:05:54;;;;;;;;;;;;;;;16.24;40.54;100115.00;4940760;28;1081;-46
2024/01/16 10:08:21;;;;;;;;;;;;;;;17.02;39.01;100115.91;4940573;29;1162;-45
2024/01/16 10:10:47;;;;;;;;;;;;;;;18.15;36.79;100116.31;4957885;29;1141;-51
2024/01/16 10:13:13;;;;;;;;;;;;;;;17.10;38.62;100126.25;4957810;29;1018;-46
2024/01/16 10:15:38;;;;;;;;;;;;;;;16.56;39.81;100116.38;4958226;29;1141;-45
2024/01/16 10:18:04;;;;;;;;;;;;;;;16.69;39.87;100121.19;4958035;29;1903;-47
2024/01/16 10:20:34;;;;;;;;;;;;;;;18.10;36.96;100136.47;4958590;29;1113;-46
2024/01/16 10:22:59;;;;;;;;;;;;;;;17.23;38.59;100126.66;4957495;29;1179;-49
2024/01/16 10:25:25;;;;;;;;;;;;;;;16.59;39.84;100127.59;4957528;29;1097;-48
2024/01/16 10:28:02;;;;;;;;;;;;;;;16.35;40.28;100133.03;4957554;29;1145;-52
2024/01/16 10:30:27;;;;;;;;;;;;;;;16.49;40.38;100132.38;4957783;29;1064;-50
2024/01/16 10:32:53;;;;;;;;;;;;;;;17.97;37.43;100137.22;4958033;29;1084;-49
2024/01/16 10:35:20;;;;;;;;;;;;;;;17.58;37.54;100138.31;4939027;29;1244;-53
2024/01/16 10:37:47;;;;;;;;;;;;;;;16.86;39.17;100142.69;4957224;29;1903;-51
2024/01/16 10:40:19;;;;;;;;;;;;;;;16.39;40.15;100127.78;4957462;29;1144;-49
2024/01/16 10:42:48;;;;;;;;;;;;;;;16.15;40.93;100144.19;4952106;29;1348;-50
2024/01/16 10:45:18;;;;;;;;;;;;;;;17.70;37.64;100151.63;4957758;29;1087;-49
2024/01/16 10:47:44;;;;;;;;;;;;;;;17.71;37.45;100156.00;4953296;29;1394;-48
2024/01/16 10:50:10;;;;;;;;;;;;;;;16.79;39.36;100158.72;4957213;29;1176;-47
2024/01/16 10:52:35;;;;;;;;;;;;;;;16.40;40.12;100156.88;4957892;29;1390;-47
2024/01/16 10:55:04;;;;;;;;;;;;;;;16.39;40.59;100150.53;4940505;29;1208;-44
2024/01/16 10:57:31;;;;;;;;;;;;;;;17.93;37.12;100147.19;4931038;29;1981;-44
2024/01/16 11:00:01;;;;;;;;;;;;;;;17.14;38.56;100153.13;4954031;29;1359;-45
2024/01/16 11:02:28;;;;;;;;;;;;;;;16.48;40.10;100163.66;4940400;29;1391;-42
2024/01/16 11:04:54;;;;;;;;;;;;;;;16.16;40.85;100154.88;4936490;29;1451;-46
2024/01/16 11:07:22;;;;;;;;;;;;;;;17.30;38.65;100162.03;4957086;29;1232;-55
2024/01/16 11:09:48;;;;;;;;;;;;;;;18.16;36.80;100170.22;4948210;29;1264;-53
2024/01/16 11:12:16;;;;;;;;;;;;;;;17.00;39.03;100185.97;4940437;29;1121;-45
2024/01/16 11:14:42;;;;;;;;;;;;;;;16.51;39.86;100185.88;4957672;29;1136;-48
2024/01/16 11:17:11;;;;;;;;;;;;;;;16.16;40.79;100178.72;4927760;28;1542;-48
2024/01/16 11:19:37;;;;;;;;;;;;;;;17.07;38.83;100190.03;4944123;29;1907;-49
2024/01/16 11:22:04;;;;;;;;;;;;;;;18.22;36.54;100177.28;4960983;29;1128;-51
2024/01/16 11:24:30;;;;;;;;;;;;;;;17.29;38.35;100194.16;4944153;29;988;-46
2024/01/16 11:26:55;;;;;;;;;;;;;;;18.52;36.29;100188.09;4960440;28;1074;-54
2024/01/16 11:29:27;;;;;;;;;;;;;;;18.53;36.21;100198.00;4943845;29;1175;-50
2024/01/16 11:31:56;;;;;;;;;;;;;;;17.37;38.19;100203.72;4960888;29;1092;-45
2024/01/16 11:34:40;;;;;;;;;;;;;;;16.90;39.26;100203.38;4960942;29;1149;-46
2024/01/16 11:37:09;;;;;;;;;;;;;;;16.58;40.07;100219.28;4956683;29;1158;-44
2024/01/16 11:39:35;;;;;;;;;;;;;;;16.30;40.72;100214.56;4943191;29;1910;-47
2024/01/16 11:42:03;;;;;;;;;;;;;;;17.61;37.89;100210.03;4953475;29;1045;-44
2024/01/16 11:44:38;;;;;;;;;;;;;;;17.86;37.09;100208.03;4955271;29;1094;-44
2024/01/16 11:47:04;;;;;;;;;;;;;;;17.04;39.00;100230.97;4961024;29;1173;-46
2024/01/16 11:49:32;;;;;;;;;;;;;;;16.64;39.89;100243.97;4960835;29;868;-42
2024/01/16 11:51:58;;;;;;;;;;;;;;;16.34;40.47;100246.63;4960601;29;1137;-50
2024/01/16 11:54:24;;;;;;;;;;;;;;;16.15;40.63;100245.66;4960943;29;1245;-46
2024/01/16 11:56:52;;;;;;;;;;;;;;;17.04;39.09;100259.28;4960507;29;1196;-45
2024/01/16 11:59:26;;;;;;;;;;;;;;;17.29;38.18;100254.63;4951558;29;1902;-45
2024/01/16 12:01:52;;;;;;;;;;;;;;;16.67;39.71;100270.81;4943121;29;1168;-44
2024/01/16 12:04:20;;;;;;;;;;;;;;;16.32;40.59;100262.56;4959921;29;1176;-41
2024/01/16 12:06:56;;;;;;;;;;;;;;;15.97;41.04;100271.81;4960291;29;1168;-44
2024/01/16 12:09:22;;;;;;;;;;;;;;;15.88;41.52;100271.59;4960238;29;1211;-45
2024/01/16 12:11:58;;;;;;;;;;;;;;;16.94;39.25;100275.84;4960390;29;1187;-44
2024/01/16 12:14:23;;;;;;;;;;;;;;;17.16;38.53;100263.56;4948129;29;1074;-47
2024/01/16 12:16:49;;;;;;;;;;;;;;;16.54;40.16;100267.63;4960431;29;1156;-53
2024/01/16 12:19:15;;;;;;;;;;;;;;;16.10;40.95;100251.97;4959640;29;1974;-47
2024/01/16 12:21:41;;;;;;;;;;;;;;;15.83;41.47;100260.63;4959407;28;1145;-47
2024/01/16 12:24:06;;;;;;;;;;;;;;;15.68;41.81;100262.31;4959700;29;1143;-51
2024/01/16 12:26:32;;;;;;;;;;;;;;;16.06;41.36;100268.19;4959708;29;1025;-46
2024/01/16 12:28:57;;;;;;;;;;;;;;;17.48;38.09;100273.13;4959979;28;1145;-52
2024/01/16 12:31:24;;;;;;;;;;;;;;;16.57;39.80;100277.22;4958734;29;1196;-48
2024/01/16 12:33:52;;;;;;;;;;;;;;;16.07;40.88;100285.47;4960169;29;1069;-48
2024/01/16 12:36:18;;;;;;;;;;;;;;;15.85;41.19;100299.53;4958588;29;927;-49
2024/01/16 12:38:43;;;;;;;;;;;;;;;15.52;42.13;100301.81;4959347;28;1909;-50
2024/01/16 12:41:09;;;;;;;;;;;;;;;16.85;39.28;100310.50;4959123;29;1191;-48
2024/01/16 12:43:36;;;;;;;;;;;;;;;17.55;37.62;100314.84;4959187;29;1292;-47
2024/01/16 12:46:02;;;;;;;;;;;;;;;16.51;39.72;100327.75;4959704;29;1189;-49
2024/01/16 12:48:28;;;;;;;;;;;;;;;15.98;40.94;100337.34;4958805;29;1165;-49